createdAt,value
2018-06-10T00:01:04.302Z,15.10
2018-06-10T00:03:31.861Z,14.60
2018-06-10T00:05:59.465Z,13.00
2018-06-10T00:08:26.999Z,13.63
2018-06-10T00:10:54.573Z,14.03
2018-06-10T00:13:22.104Z,14.17
2018-06-10T00:15:50.456Z,17.17
2018-06-10T00:18:17.984Z,14.90
2018-06-10T00:20:47.453Z,20.23
2018-06-10T00:23:15.017Z,14.57
2018-06-10T00:25:42.554Z,14.10
2018-06-10T00:28:10.121Z,12.80
2018-06-10T00:30:37.673Z,12.23
2018-06-10T00:33:06.011Z,12.80
2018-06-10T00:35:33.544Z,14.33
2018-06-10T00:38:03.061Z,13.90
2018-06-10T00:40:30.596Z,13.50
2018-06-10T00:42:58.169Z,12.90
2018-06-10T00:45:25.736Z,11.90
2018-06-10T00:47:53.291Z,12.93
2018-06-10T00:50:20.827Z,12.27
2018-06-10T00:52:48.387Z,12.67
2018-06-10T00:55:15.948Z,12.10
2018-06-10T00:57:43.485Z,11.40
2018-06-10T01:00:12.708Z,12.20
2018-06-10T01:02:40.260Z,11.57
2018-06-10T01:05:07.830Z,12.47
2018-06-10T01:07:35.368Z,13.27
2018-06-10T01:10:04.881Z,12.17
2018-06-10T01:12:32.462Z,12.70
2018-06-10T01:15:00.031Z,12.40
2018-06-10T01:17:27.597Z,12.93
2018-06-10T01:19:55.148Z,12.10
2018-06-10T01:22:22.706Z,11.50
2018-06-10T01:24:50.233Z,12.00
2018-06-10T01:27:17.841Z,12.53
2018-06-10T01:29:45.370Z,11.70
2018-06-10T01:32:12.938Z,11.83
2018-06-10T01:34:40.481Z,12.50
2018-06-10T01:37:08.044Z,13.03
2018-06-10T01:39:35.581Z,13.00
2018-06-10T01:42:03.114Z,12.40
2018-06-10T01:44:30.669Z,13.20
2018-06-10T01:46:58.220Z,12.83
2018-06-10T01:49:26.590Z,13.90
2018-06-10T01:51:54.196Z,14.20
2018-06-10T01:54:21.772Z,16.80
2018-06-10T01:56:49.316Z,14.83
2018-06-10T01:59:17.666Z,14.40
2018-06-10T02:01:45.982Z,14.73
2018-06-10T02:04:13.513Z,14.77
2018-06-10T02:06:41.305Z,15.27
2018-06-10T02:09:10.269Z,15.40
2018-06-10T02:11:38.641Z,15.30
2018-06-10T02:14:06.215Z,13.80
2018-06-10T02:16:34.516Z,13.57
2018-06-10T02:19:02.085Z,15.07
2018-06-10T02:21:31.570Z,13.87
2018-06-10T02:23:59.117Z,12.57
2018-06-10T02:26:27.444Z,15.00
2018-06-10T02:28:54.976Z,13.60
2018-06-10T02:31:22.501Z,13.60
2018-06-10T02:33:50.823Z,13.20
2018-06-10T02:36:18.366Z,13.40
2018-06-10T02:38:45.935Z,12.50
2018-06-10T02:41:13.473Z,12.17
2018-06-10T02:43:41.793Z,13.30
2018-06-10T02:46:09.329Z,12.33
2018-06-10T02:48:36.868Z,13.00
2018-06-10T02:51:04.494Z,13.43
2018-06-10T02:53:33.022Z,13.37
2018-06-10T02:56:00.606Z,12.97
2018-06-10T02:58:28.153Z,11.57
2018-06-10T03:00:55.736Z,12.60
2018-06-10T03:03:23.281Z,12.87
2018-06-10T03:05:50.828Z,12.83
2018-06-10T03:08:18.428Z,12.47
2018-06-10T03:10:46.008Z,11.87
2018-06-10T03:13:13.589Z,13.07
2018-06-10T03:15:41.908Z,13.00
2018-06-10T03:18:09.478Z,12.00
2018-06-10T03:20:37.023Z,13.70
2018-06-10T03:23:04.566Z,12.77
2018-06-10T03:25:32.142Z,12.53
2018-06-10T03:27:59.711Z,12.53
2018-06-10T03:30:27.474Z,12.90
2018-06-10T03:32:55.109Z,12.80
2018-06-10T03:35:22.652Z,13.20
2018-06-10T03:37:50.231Z,13.50
2018-06-10T03:40:17.769Z,12.60
2018-06-10T03:42:45.341Z,12.60
2018-06-10T03:45:13.018Z,12.83
2018-06-10T03:47:40.570Z,12.17
2018-06-10T03:50:08.139Z,10.60
2018-06-10T03:52:35.668Z,11.93
2018-06-10T03:55:03.225Z,12.07
2018-06-10T03:57:31.541Z,11.70
2018-06-10T03:59:59.140Z,12.03
2018-06-10T04:02:26.701Z,12.43
2018-06-10T04:04:55.053Z,12.00
2018-06-10T04:07:24.585Z,11.60
2018-06-10T04:09:53.108Z,12.57
2018-06-10T04:12:20.684Z,11.23
2018-06-10T04:14:48.289Z,12.00
2018-06-10T04:17:15.855Z,11.10
2018-06-10T04:19:43.425Z,12.00
2018-06-10T04:22:11.786Z,11.80
2018-06-10T04:24:40.134Z,11.50
2018-06-10T04:27:07.690Z,12.50
2018-06-10T04:29:37.206Z,11.30
2018-06-10T04:32:04.746Z,11.60
2018-06-10T04:34:32.305Z,11.93
2018-06-10T04:37:00.825Z,11.10
2018-06-10T04:39:28.417Z,11.57
2018-06-10T04:41:55.989Z,11.80
2018-06-10T04:44:23.556Z,11.90
2018-06-10T04:46:51.118Z,11.90
2018-06-10T04:49:18.679Z,11.80
2018-06-10T04:51:46.221Z,12.57
2018-06-10T04:54:13.790Z,11.30
2018-06-10T04:56:41.322Z,11.30
2018-06-10T04:59:08.858Z,12.40
2018-06-10T05:01:37.194Z,12.00
2018-06-10T05:04:04.736Z,11.27
2018-06-10T05:06:32.308Z,10.50
2018-06-10T05:08:59.848Z,11.47
2018-06-10T05:11:27.389Z,10.20
2018-06-10T05:13:55.080Z,10.00
2018-06-10T05:16:22.610Z,9.90
2018-06-10T05:18:50.932Z,9.77
2018-06-10T05:21:18.483Z,10.20
2018-06-10T05:23:47.800Z,10.50
2018-06-10T05:26:15.333Z,10.20
2018-06-10T05:28:42.907Z,11.40
2018-06-10T05:31:10.440Z,10.33
2018-06-10T05:33:37.999Z,10.50
2018-06-10T05:36:05.541Z,10.97
2018-06-10T05:38:33.836Z,9.87
2018-06-10T05:41:01.397Z,10.87
2018-06-10T05:43:28.936Z,10.90
2018-06-10T05:45:56.499Z,10.60
2018-06-10T05:48:24.034Z,10.13
2018-06-10T05:50:52.357Z,9.40
2018-06-10T05:53:20.841Z,10.80
2018-06-10T05:55:48.397Z,9.97
2018-06-10T05:58:15.933Z,9.83
2018-06-10T06:00:43.492Z,7.90
2018-06-10T06:03:11.144Z,7.93
2018-06-10T06:05:39.440Z,8.10
2018-06-10T06:08:07.005Z,7.47
2018-06-10T06:10:34.541Z,8.30
2018-06-10T06:13:02.871Z,7.80
2018-06-10T06:15:30.425Z,8.60
2018-06-10T06:17:58.178Z,7.90
2018-06-10T06:20:25.715Z,7.13
2018-06-10T06:22:53.331Z,7.10
2018-06-10T06:25:20.862Z,7.23
2018-06-10T06:27:48.397Z,7.40
2018-06-10T06:30:15.957Z,7.10
2018-06-10T06:32:44.470Z,7.57
2018-06-10T06:35:12.036Z,7.10
2018-06-10T06:37:39.565Z,7.73
2018-06-10T06:40:07.132Z,7.13
2018-06-10T06:42:34.669Z,7.30
2018-06-10T06:45:02.236Z,7.83
2018-06-10T06:47:29.793Z,7.63
2018-06-10T06:49:57.334Z,7.70
2018-06-10T06:52:25.736Z,7.47
2018-06-10T06:54:53.219Z,8.03
2018-06-10T06:57:23.685Z,8.13
2018-06-10T06:59:51.988Z,7.70
2018-06-10T07:02:19.568Z,8.47
2018-06-10T07:04:47.116Z,12.20
2018-06-10T07:07:14.700Z,9.03
2018-06-10T07:09:42.236Z,14.27
2018-06-10T07:12:09.812Z,8.60
2018-06-10T07:14:37.362Z,8.70
2018-06-10T07:17:04.898Z,8.40
2018-06-10T07:19:32.465Z,8.30
2018-06-10T07:22:00.016Z,8.83
2018-06-10T07:24:27.602Z,10.33
2018-06-10T07:26:57.925Z,9.23
2018-06-10T07:29:26.306Z,10.30
2018-06-10T07:31:53.856Z,8.83
2018-06-10T07:34:21.432Z,9.73
2018-06-10T07:36:48.966Z,9.70
2018-06-10T07:39:16.537Z,9.07
2018-06-10T07:41:44.077Z,8.90
2018-06-10T07:44:11.637Z,9.40
2018-06-10T07:46:41.132Z,9.27
2018-06-10T07:49:09.941Z,9.80
2018-06-10T07:51:38.484Z,9.30
2018-06-10T07:54:06.807Z,8.47
2018-06-10T07:56:34.375Z,9.00
2018-06-10T07:59:01.911Z,9.40
2018-06-10T08:01:29.466Z,9.80
2018-06-10T08:03:57.042Z,9.20
2018-06-10T08:06:24.594Z,9.67
2018-06-10T08:08:52.132Z,11.80
2018-06-10T08:11:19.685Z,10.80
2018-06-10T08:13:48.063Z,10.13
2018-06-10T08:16:16.389Z,10.40
2018-06-10T08:18:43.984Z,10.50
2018-06-10T08:21:12.469Z,10.00
2018-06-10T08:23:40.827Z,9.87
2018-06-10T08:26:08.363Z,8.90
2018-06-10T08:28:35.924Z,8.97
2018-06-10T08:31:03.462Z,10.23
2018-06-10T08:33:31.984Z,10.00
2018-06-10T08:36:00.193Z,9.90
2018-06-10T08:38:27.740Z,9.77
2018-06-10T08:40:55.305Z,8.47
2018-06-10T08:43:23.788Z,9.13
2018-06-10T08:45:51.357Z,8.50
2018-06-10T08:48:18.897Z,8.43
2018-06-10T08:50:46.512Z,9.00
2018-06-10T08:53:14.051Z,8.93
2018-06-10T08:55:41.589Z,9.43
2018-06-10T08:58:09.169Z,9.00
2018-06-10T09:00:36.765Z,8.40
2018-06-10T09:03:04.342Z,9.57
2018-06-10T09:05:31.895Z,7.70
2018-06-10T09:07:59.484Z,9.00
2018-06-10T09:10:28.052Z,9.10
2018-06-10T09:12:57.559Z,9.17
2018-06-10T09:15:25.097Z,9.37
2018-06-10T09:17:52.669Z,8.30
2018-06-10T09:20:20.328Z,8.73
2018-06-10T09:22:47.883Z,8.53
2018-06-10T09:25:15.537Z,9.10
2018-06-10T09:27:43.106Z,9.10
2018-06-10T09:30:10.684Z,9.70
2018-06-10T09:32:38.236Z,9.70
2018-06-10T09:35:05.814Z,10.07
2018-06-10T09:37:34.739Z,10.30
2018-06-10T09:40:02.290Z,9.77
2018-06-10T09:42:29.881Z,8.50
2018-06-10T09:44:57.421Z,8.03
2018-06-10T09:47:24.984Z,9.10
2018-06-10T09:49:52.630Z,8.23
2018-06-10T09:52:20.967Z,6.90
2018-06-10T09:54:48.512Z,6.60
2018-06-10T09:57:16.101Z,7.20
2018-06-10T09:59:44.394Z,7.00
2018-06-10T10:02:11.965Z,7.97
2018-06-10T10:04:39.933Z,6.80
2018-06-10T10:07:08.473Z,6.50
2018-06-10T10:09:36.810Z,6.30
2018-06-10T10:12:04.565Z,6.20
2018-06-10T10:14:32.193Z,5.63
2018-06-10T10:16:59.693Z,6.13
2018-06-10T10:19:27.250Z,6.73
2018-06-10T10:21:54.796Z,6.67
2018-06-10T10:24:22.364Z,6.37
2018-06-10T10:26:49.899Z,6.10
2018-06-10T10:29:18.442Z,5.70
2018-06-10T10:31:46.060Z,5.90
2018-06-10T10:34:14.322Z,4.90
2018-06-10T10:36:41.885Z,4.80
2018-06-10T10:39:09.465Z,4.60
2018-06-10T10:41:36.993Z,4.00
2018-06-10T10:44:04.552Z,6.10
2018-06-10T10:46:33.081Z,7.50
2018-06-10T10:49:00.633Z,4.87
2018-06-10T10:51:28.166Z,13.63
2018-06-10T10:53:55.721Z,7.60
2018-06-10T10:56:23.268Z,8.97
2018-06-10T10:58:50.801Z,5.30
2018-06-10T11:01:18.360Z,20.93
2018-06-10T11:03:45.892Z,5.47
2018-06-10T11:06:13.445Z,18.17
2018-06-10T11:08:40.979Z,10.07
2018-06-10T11:11:08.544Z,20.30
2018-06-10T11:13:36.100Z,8.20
2018-06-10T11:16:03.675Z,14.50
2018-06-10T11:18:31.211Z,9.83
2018-06-10T11:20:58.733Z,5.37
2018-06-10T11:23:26.301Z,4.60
2018-06-10T11:25:54.596Z,4.83
2018-06-10T11:28:22.150Z,4.70
2018-06-10T11:30:50.451Z,7.00
2018-06-10T11:33:18.008Z,5.00
2018-06-10T11:35:45.542Z,6.67
2018-06-10T11:38:13.866Z,5.00
2018-06-10T11:40:41.424Z,5.03
2018-06-10T11:43:09.909Z,5.60
2018-06-10T11:45:38.485Z,4.37
2018-06-10T11:48:06.969Z,4.67
2018-06-10T11:50:34.528Z,4.97
2018-06-10T11:53:02.065Z,5.30
2018-06-10T11:55:29.620Z,4.70
2018-06-10T11:57:57.303Z,4.70
2018-06-10T12:00:24.823Z,3.80
2018-06-10T12:02:52.382Z,3.50
2018-06-10T12:05:20.781Z,3.30
2018-06-10T12:07:48.292Z,3.40
2018-06-10T12:10:15.809Z,3.97
2018-06-10T12:12:43.358Z,2.77
2018-06-10T12:15:10.877Z,2.43
2018-06-10T12:17:38.429Z,3.60
2018-06-10T12:20:05.954Z,2.13
2018-06-10T12:22:33.522Z,2.27
2018-06-10T12:25:01.062Z,2.70
2018-06-10T12:27:28.590Z,2.40
2018-06-10T12:29:56.909Z,2.40
2018-06-10T12:32:24.429Z,2.97
2018-06-10T12:34:52.756Z,2.20
2018-06-10T12:37:20.287Z,2.40
2018-06-10T12:39:48.778Z,3.90
2018-06-10T12:42:16.332Z,2.40
2018-06-10T12:44:43.856Z,2.70
2018-06-10T12:47:11.434Z,3.00
2018-06-10T12:49:38.961Z,2.53
2018-06-10T12:52:06.521Z,2.73
2018-06-10T12:54:34.067Z,2.33
2018-06-10T12:57:01.598Z,2.40
2018-06-10T12:59:29.151Z,2.50
2018-06-10T13:01:56.677Z,3.20
2018-06-10T13:04:25.038Z,3.37
2018-06-10T13:06:52.545Z,7.60
2018-06-10T13:09:20.100Z,2.03
2018-06-10T13:11:47.632Z,4.57
2018-06-10T13:14:15.194Z,6.47
2018-06-10T13:16:42.729Z,2.53
2018-06-10T13:19:10.253Z,2.83
2018-06-10T13:21:37.828Z,5.20
2018-06-10T13:24:05.357Z,4.10
2018-06-10T13:26:32.912Z,3.90
2018-06-10T13:29:00.437Z,5.20
2018-06-10T13:31:28.777Z,4.10
2018-06-10T13:33:57.282Z,6.20
2018-06-10T13:36:25.601Z,2.37
2018-06-10T13:38:53.189Z,3.40
2018-06-10T13:41:20.725Z,2.73
2018-06-10T13:43:51.240Z,2.80
2018-06-10T13:46:18.802Z,2.50
2018-06-10T13:48:48.161Z,2.40
2018-06-10T13:51:16.485Z,2.80
2018-06-10T13:53:44.054Z,3.00
2018-06-10T13:56:11.597Z,2.63
2018-06-10T13:58:40.869Z,2.37
2018-06-10T14:01:08.459Z,4.10
2018-06-10T14:03:36.001Z,3.40
2018-06-10T14:06:04.370Z,2.90
2018-06-10T14:08:31.894Z,2.87
2018-06-10T14:11:01.464Z,3.00
2018-06-10T14:13:29.004Z,2.80
2018-06-10T14:15:57.349Z,2.30
2018-06-10T14:18:24.890Z,2.57
2018-06-10T14:20:52.475Z,2.93
2018-06-10T14:23:20.835Z,2.83
2018-06-10T14:25:48.393Z,3.17
2018-06-10T14:28:15.960Z,3.63
2018-06-10T14:30:43.501Z,2.70
2018-06-10T14:33:11.279Z,13.00
2018-06-10T14:35:38.816Z,2.17
2018-06-10T14:38:06.389Z,2.73
2018-06-10T14:40:37.117Z,2.93
2018-06-10T14:43:04.688Z,4.23
2018-06-10T14:45:32.331Z,3.00
2018-06-10T14:48:00.088Z,2.50
2018-06-10T14:50:28.263Z,2.80
2018-06-10T14:52:55.938Z,2.80
2018-06-10T14:55:23.497Z,2.73
2018-06-10T14:57:52.029Z,2.53
2018-06-10T15:00:21.580Z,2.88
2018-06-10T15:02:49.134Z,2.60
2018-06-10T15:05:16.693Z,2.77
2018-06-10T15:07:44.266Z,2.37
2018-06-10T15:10:11.808Z,2.70
2018-06-10T15:12:39.383Z,2.33
2018-06-10T15:15:08.005Z,3.50
2018-06-10T15:17:35.607Z,2.10
2018-06-10T15:20:04.403Z,2.37
2018-06-10T15:22:31.951Z,2.67
2018-06-10T15:24:59.567Z,2.30
2018-06-10T15:27:27.141Z,2.50
2018-06-10T15:29:56.668Z,2.53
2018-06-10T15:32:24.235Z,2.37
2018-06-10T15:34:51.812Z,3.50
2018-06-10T15:37:19.351Z,3.70
2018-06-10T15:39:47.692Z,2.20
2018-06-10T15:42:15.326Z,2.70
2018-06-10T15:44:42.933Z,2.50
2018-06-10T15:47:11.233Z,3.30
2018-06-10T15:49:38.802Z,6.73
2018-06-10T15:52:07.361Z,5.13
2018-06-10T15:54:34.909Z,2.60
2018-06-10T15:57:02.486Z,2.70
2018-06-10T15:59:31.066Z,2.37
2018-06-10T16:01:58.617Z,2.27
2018-06-10T16:04:26.203Z,2.50
2018-06-10T16:06:53.771Z,2.78
2018-06-10T16:09:21.355Z,2.50
2018-06-10T16:11:48.952Z,2.70
2018-06-10T16:14:16.521Z,2.60
2018-06-10T16:16:45.158Z,2.77
2018-06-10T16:19:12.693Z,2.57
2018-06-10T16:21:41.547Z,2.80
2018-06-10T16:24:10.374Z,3.63
2018-06-10T16:26:37.985Z,2.90
2018-06-10T16:29:06.400Z,3.70
2018-06-10T16:31:33.999Z,2.80
2018-06-10T16:34:01.613Z,2.73
2018-06-10T16:36:30.625Z,4.00
2018-06-10T16:38:59.188Z,3.20
2018-06-10T16:41:26.733Z,6.60
2018-06-10T16:43:55.081Z,3.43
2018-06-10T16:46:23.343Z,3.03
2018-06-10T16:48:51.270Z,3.03
2018-06-10T16:51:19.136Z,2.80
2018-06-10T16:53:46.897Z,2.80
2018-06-10T16:56:15.429Z,3.10
2018-06-10T16:58:43.055Z,2.93
2018-06-10T17:01:11.610Z,3.10
2018-06-10T17:03:39.166Z,2.80
2018-06-10T17:06:07.489Z,2.90
2018-06-10T17:08:35.932Z,3.00
2018-06-10T17:11:04.713Z,2.90
2018-06-10T17:13:32.700Z,2.60
2018-06-10T17:16:00.686Z,3.10
2018-06-10T17:18:28.297Z,2.93
2018-06-10T17:20:55.881Z,2.90
2018-06-10T17:23:23.434Z,3.17
2018-06-10T17:25:51.728Z,3.33
2018-06-10T17:28:19.308Z,2.50
2018-06-10T17:30:46.857Z,3.20
2018-06-10T17:33:14.426Z,3.40
2018-06-10T17:35:41.989Z,3.27
2018-06-10T17:38:10.561Z,3.17
2018-06-10T17:40:38.137Z,2.67
2018-06-10T17:43:05.763Z,3.17
2018-06-10T17:45:33.331Z,3.53
2018-06-10T17:48:01.066Z,3.70
2018-06-10T17:50:31.405Z,4.37
2018-06-10T17:52:58.929Z,3.90
2018-06-10T17:55:26.492Z,3.87
2018-06-10T17:57:54.059Z,3.47
2018-06-10T18:00:22.550Z,3.30
2018-06-10T18:02:50.340Z,3.20
2018-06-10T18:05:17.917Z,4.53
2018-06-10T18:07:45.469Z,3.63
2018-06-10T18:10:13.066Z,4.70
2018-06-10T18:12:40.705Z,4.50
2018-06-10T18:15:08.345Z,4.40
2018-06-10T18:17:35.887Z,3.40
2018-06-10T18:20:03.505Z,3.63
2018-06-10T18:22:31.328Z,3.40
2018-06-10T18:24:59.102Z,3.13
2018-06-10T18:27:27.360Z,4.10
2018-06-10T18:29:54.909Z,3.83
2018-06-10T18:32:22.807Z,6.10
2018-06-10T18:34:51.011Z,4.80
2018-06-10T18:37:19.111Z,4.83
2018-06-10T18:39:47.424Z,9.97
2018-06-10T18:42:15.930Z,4.20
2018-06-10T18:44:45.502Z,4.27
2018-06-10T18:47:13.075Z,3.63
2018-06-10T18:49:40.656Z,3.73
2018-06-10T18:52:08.200Z,4.40
2018-06-10T18:54:36.740Z,3.70
2018-06-10T18:57:05.045Z,4.60
2018-06-10T18:59:32.753Z,4.30
2018-06-10T19:02:00.335Z,3.90
2018-06-10T19:04:27.873Z,5.07
2018-06-10T19:06:55.432Z,4.03
2018-06-10T19:09:22.996Z,4.43
2018-06-10T19:11:50.679Z,4.87
2018-06-10T19:14:18.243Z,3.97
2018-06-10T19:16:45.784Z,3.50
2018-06-10T19:19:13.380Z,4.30
2018-06-10T19:21:40.972Z,4.33
2018-06-10T19:24:08.606Z,4.30
2018-06-10T19:26:36.155Z,4.53
2018-06-10T19:29:03.741Z,4.23
2018-06-10T19:31:31.398Z,4.00
2018-06-10T19:33:58.967Z,4.77
2018-06-10T19:36:26.533Z,3.67
2018-06-10T19:38:56.086Z,4.10
2018-06-10T19:41:23.629Z,4.20
2018-06-10T19:43:51.188Z,4.50
2018-06-10T19:46:19.073Z,4.30
2018-06-10T19:48:46.610Z,3.80
2018-06-10T19:51:14.171Z,3.97
2018-06-10T19:53:41.766Z,4.00
2018-06-10T19:56:09.356Z,4.43
2018-06-10T19:58:36.885Z,3.50
2018-06-10T20:01:04.482Z,3.80
2018-06-10T20:03:32.071Z,8.47
2018-06-10T20:05:59.655Z,4.37
2018-06-10T20:08:27.982Z,8.87
2018-06-10T20:10:55.568Z,3.60
2018-06-10T20:13:23.146Z,4.33
2018-06-10T20:15:50.695Z,4.53
2018-06-10T20:18:19.121Z,4.23
2018-06-10T20:20:46.674Z,4.30
2018-06-10T20:23:14.213Z,3.90
2018-06-10T20:25:43.025Z,4.10
2018-06-10T20:28:11.529Z,3.80
2018-06-10T20:30:39.190Z,4.60
2018-06-10T20:33:06.645Z,3.93
2018-06-10T20:35:34.280Z,4.27
2018-06-10T20:38:02.777Z,4.40
2018-06-10T20:40:30.318Z,3.80
2018-06-10T20:42:57.889Z,4.07
2018-06-10T20:45:25.420Z,3.87
2018-06-10T20:47:53.946Z,3.60
2018-06-10T20:50:21.504Z,3.43
2018-06-10T20:52:49.064Z,5.13
2018-06-10T20:55:16.628Z,3.80
2018-06-10T20:57:45.165Z,3.70
2018-06-10T21:00:13.568Z,4.00
2018-06-10T21:02:41.235Z,4.50
2018-06-10T21:05:10.135Z,4.80
2018-06-10T21:07:38.601Z,3.53
2018-06-10T21:10:06.578Z,4.50
2018-06-10T21:12:34.271Z,4.30
2018-06-10T21:15:01.903Z,4.20
2018-06-10T21:17:29.693Z,5.40
2018-06-10T21:19:58.221Z,4.17
2018-06-10T21:22:26.791Z,4.43
2018-06-10T21:24:55.170Z,4.37
2018-06-10T21:27:24.529Z,4.00
2018-06-10T21:29:52.532Z,4.33
2018-06-10T21:32:20.400Z,3.93
2018-06-10T21:34:49.705Z,4.10
2018-06-10T21:37:18.402Z,4.20
2018-06-10T21:39:45.997Z,4.70
2018-06-10T21:42:14.525Z,4.50
2018-06-10T21:44:43.069Z,4.60
2018-06-10T21:47:10.709Z,4.40
2018-06-10T21:49:38.285Z,5.03
2018-06-10T21:52:05.848Z,5.57
2018-06-10T21:54:33.414Z,4.30
2018-06-10T21:57:00.988Z,4.50
2018-06-10T21:59:28.764Z,5.13
2018-06-10T22:01:57.105Z,5.23
2018-06-10T22:04:24.686Z,4.90
2018-06-10T22:06:52.331Z,4.17
2018-06-10T22:09:20.150Z,4.03
2018-06-10T22:11:48.361Z,4.63
2018-06-10T22:14:16.857Z,5.03
2018-06-10T22:16:44.804Z,4.80
2018-06-10T22:19:12.410Z,4.70
2018-06-10T22:21:39.951Z,4.50
2018-06-10T22:24:07.636Z,4.70
2018-06-10T22:26:36.149Z,11.13
2018-06-10T22:29:03.708Z,4.43
2018-06-10T22:31:31.263Z,4.80
2018-06-10T22:33:58.845Z,8.40
2018-06-10T22:36:26.436Z,4.73
2018-06-10T22:38:53.968Z,4.90
2018-06-10T22:41:21.544Z,4.60
2018-06-10T22:43:49.097Z,6.30
2018-06-10T22:46:16.945Z,4.27
2018-06-10T22:48:44.490Z,4.33
2018-06-10T22:51:12.057Z,4.70
2018-06-10T22:53:39.628Z,4.63
2018-06-10T22:56:07.212Z,4.90
2018-06-10T22:58:35.824Z,4.30
2018-06-10T23:01:03.384Z,4.73
2018-06-10T23:03:31.717Z,4.23
2018-06-10T23:05:59.301Z,5.20
2018-06-10T23:08:27.655Z,4.33
2018-06-10T23:10:55.199Z,5.00
2018-06-10T23:13:24.843Z,4.60
2018-06-10T23:15:52.377Z,4.13
2018-06-10T23:18:20.032Z,4.80
2018-06-10T23:20:48.726Z,4.57
2018-06-10T23:23:16.293Z,4.53
2018-06-10T23:25:43.846Z,4.33
2018-06-10T23:28:11.441Z,4.43
2018-06-10T23:30:39.150Z,4.47
2018-06-10T23:33:08.673Z,4.60
2018-06-10T23:35:36.241Z,5.00
2018-06-10T23:38:03.795Z,4.57
2018-06-10T23:40:31.367Z,4.80
2018-06-10T23:42:58.908Z,4.40
2018-06-10T23:45:26.473Z,4.33
2018-06-10T23:47:54.025Z,4.70
2018-06-10T23:50:21.902Z,4.85
2018-06-10T23:52:49.457Z,4.60
2018-06-10T23:55:17.047Z,4.23
2018-06-10T23:57:44.619Z,4.97
